AirNav   ProFlight Series 2 Aviation Headset
 
 569 users online  

66NY Maple Ridge Airport
Medina, New York, USA

GOING TO MEDINA?


FAA INFORMATION EFFECTIVE 18 JUNE 2020

Location

FAA Identifier: 66NY
Lat/Long: 43-12-10.2100N 078-21-14.0840W
43-12.170167N 078-21.234733W
43.2028361,-78.3539122
(estimated)
Elevation: 646 ft. / 197 m (estimated)
Variation: 10W (1985)
From city: 2 miles SE of MEDINA, NY
Time zone: UTC -4 (UTC -5 during Standard Time)
Zip code: 14103

Airport Operations

Airport use: Private use. Permission required prior to landing
Activation date: 10/1975
Control tower: no
ARTCC: CLEVELAND CENTER
FSS: BUFFALO FLIGHT SERVICE STATION
Attendance: UNATNDD
Wind indicator: yes
Segmented circle: no

Airport Communications

WX AWOS-3PT at GVQ (13 nm SE): 127.525 (585-343-6369)

Nearby radio navigation aids

VOR radial/distance  VOR name  Freq  Var
BUFr046/20.8BUFFALO VOR/DME116.4008W
ROCr292/30.2ROCHESTER VOR/DME110.0012W
GEEr318/35.1GENESEO VOR/DME108.2009W

Airport Services

Runway Information

Runway 18/36

Dimensions: 2800 x 60 ft. / 853 x 18 m
Surface: turf
RUNWAY 18  RUNWAY 36
Traffic pattern: leftleft
Obstructions: pline, 750 ft. from runwaytrees, 100 ft. from runway

Airport Ownership and Management from official FAA records

Ownership: Privately-owned
Owner: LEWIS M. PHINNEY
12008 MAPLE RIDGE RD
MEDINA, NY 14103
Phone 716-798-3379
Manager: MILFORD L PHINNEY
11986 TELEGRAPH RD
MEDINA, NY 14103
Phone 716-798-4746

Airport Operational Statistics

Aircraft based on the field: 2
Single engine airplanes: 2
    

Additional Remarks

OCCASIONAL USE BY MILITARY HELICOPTERS FOR PRACTICE.
FOR CD CTC CLEVELAND ARTCC AT 440-774-0490.

Instrument Procedures

There are no published instrument procedures at 66NY.

Some nearby airports with instrument procedures:

9G6 - Pine Hill Airport (4 nm SE)
9G3 - Akron Airport/Jesson Field (12 nm SW)
KGVQ - Genesee County Airport (13 nm SE)
7G0 - Ledgedale Airpark (19 nm E)
5G0 - Le Roy Airport (23 nm SE)
 
Loc | Ops | Rwys | IFR | FBO | Links
Com | Nav | Svcs | Stats | Notes
Area around 66NY (Maple Ridge Airport)
 
Road maps at: MapQuest Bing Google
 
Aerial photo
No photo
 
Sectional chart

 
Airport distance calculator
Flying to Maple Ridge Airport? Find the distance to fly.

From to 66NY

Sunrise and sunset
Times for 13-Jul-2020
 Local
(UTC-4)
 Zulu
(UTC)
Morning civil twilight05:1309:13
Sunrise05:4709:47
Sunset20:5100:51
Evening civil twilight21:2501:25

Current date and time
Zulu (UTC)  13-Jul-2020 04:54:49
Local (UTC-4)  13-Jul-2020 00:54:49
 
METAR
KGVQ 
13nm SE 
130356Z AUTO 27004KT 10SM CLR 20/18 A2981 RMK AO2 SLP087 T02000178
KBUF 
23nm SW 
130354Z 34005KT 10SM FEW050 BKN060 22/17 A2980 RMK AO2 SLP086 T02170167 $
KIAG 
26nm W 
130353Z AUTO 27003KT 10SM BKN033 BKN049 OVC090 21/17 A2979 RMK AO2 SLP082 T02110172
TAF
KBUF 
23nm SW 
130250Z 1303/1324 30006KT P6SM VCSH BKN040 FM130500 28006KT P6SM BKN040 FM131800 31010G16KT P6SM BKN040 FM132000 27010G16KT P6SM SKC FM132100 26009KT P6SM SKC
KIAG 
26nm W 
130250Z 1303/1324 34005KT P6SM VCSH BKN040 FM130500 31005KT P6SM SCT040 FM131700 31011G17KT P6SM SCT040 FM132200 31009KT P6SM SKC
NOTAMs
Click for the latest NOTAMs
NOTAMs are issued by the DoD/FAA and will open in a separate window not controlled by AirNav.

 

 
 

Would you like to see your business listed on this page?

 If your business provides an interesting product or service to pilots, flight crews, aircraft, or users of the Maple Ridge Airport, you should consider listing it here.  To start the listing process, click on the button below
 
Add a business
 

Other Pages about Maple Ridge Airport

Update a link
 
Copyright © AirNav, LLC. All rights reserved. Privacy Policy  Contact